createdAt,value
2022-11-19T00:01:53.495Z,21.53
2022-11-19T00:04:20.219Z,21.56
2022-11-19T00:06:46.806Z,21.59
2022-11-19T00:09:14.682Z,21.60
2022-11-19T00:12:00.212Z,21.64
2022-11-19T00:14:27.005Z,21.65
2022-11-19T00:16:53.687Z,21.67
2022-11-19T00:19:20.653Z,21.68
2022-11-19T00:21:48.865Z,21.71
2022-11-19T00:24:15.482Z,21.72
2022-11-19T00:26:42.179Z,21.74
2022-11-19T00:29:14.226Z,21.76
2022-11-19T00:31:43.385Z,21.77
2022-11-19T00:34:10.774Z,21.79
2022-11-19T00:36:37.503Z,21.79
2022-11-19T00:39:04.171Z,21.79
2022-11-19T00:41:30.768Z,21.79
2022-11-19T00:43:57.392Z,21.79
2022-11-19T00:46:25.099Z,21.77
2022-11-19T00:48:52.687Z,21.77
2022-11-19T00:51:19.983Z,21.76
2022-11-19T00:53:47.068Z,21.75
2022-11-19T00:56:15.063Z,21.75
2022-11-19T00:58:41.990Z,21.76
2022-11-19T01:01:09.174Z,21.74
2022-11-19T01:03:36.280Z,21.74
2022-11-19T01:06:03.412Z,21.73
2022-11-19T01:08:30.091Z,21.73
2022-11-19T01:10:56.756Z,21.71
2022-11-19T01:13:35.391Z,21.70
2022-11-19T01:16:13.293Z,21.70
2022-11-19T01:18:40.947Z,21.67
2022-11-19T01:21:08.350Z,21.65
2022-11-19T01:23:35.014Z,21.62
2022-11-19T01:26:01.784Z,21.59
2022-11-19T01:28:28.758Z,21.56
2022-11-19T01:30:55.461Z,21.52
2022-11-19T01:33:22.796Z,21.50
2022-11-19T01:35:56.415Z,21.48
2022-11-19T01:38:23.114Z,21.50
2022-11-19T01:40:49.793Z,21.48
2022-11-19T01:43:16.368Z,21.46
2022-11-19T01:45:49.065Z,21.44
2022-11-19T01:48:24.427Z,21.43
2022-11-19T01:50:51.005Z,21.41
2022-11-19T01:53:19.486Z,21.38
2022-11-19T01:55:47.143Z,21.37
2022-11-19T01:58:15.879Z,21.33
2022-11-19T02:00:42.586Z,21.33
2022-11-19T02:03:10.301Z,21.30
2022-11-19T02:05:37.367Z,21.29
2022-11-19T02:08:06.377Z,21.27
2022-11-19T02:10:53.045Z,21.28
2022-11-19T02:13:25.625Z,21.24
2022-11-19T02:15:55.755Z,21.23
2022-11-19T02:18:34.725Z,21.27
2022-11-19T02:21:08.712Z,21.23
2022-11-19T02:23:52.593Z,21.24
2022-11-19T02:26:25.165Z,21.22
2022-11-19T02:28:53.643Z,21.24
2022-11-19T02:31:24.205Z,21.22
2022-11-19T02:34:00.300Z,21.22
2022-11-19T02:36:47.302Z,21.19
2022-11-19T02:39:36.546Z,21.19
2022-11-19T02:42:09.085Z,21.17
2022-11-19T02:44:56.958Z,21.21
2022-11-19T02:47:39.301Z,21.25
2022-11-19T02:50:11.796Z,21.18
2022-11-19T02:52:41.249Z,21.17
2022-11-19T02:55:08.212Z,21.16
2022-11-19T02:57:35.556Z,21.15
2022-11-19T03:00:36.629Z,21.19
2022-11-19T03:03:24.218Z,21.13
2022-11-19T03:05:57.086Z,21.11
2022-11-19T03:08:24.144Z,21.05
2022-11-19T03:11:10.591Z,21.06
2022-11-19T03:14:01.807Z,21.06
2022-11-19T03:16:42.401Z,21.06
2022-11-19T03:19:08.980Z,21.03
2022-11-19T03:21:38.798Z,21.02
2022-11-19T03:24:07.537Z,21.04
2022-11-19T03:26:37.067Z,21.01
2022-11-19T03:29:06.252Z,20.93
2022-11-19T03:31:34.614Z,20.91
2022-11-19T03:34:03.319Z,20.87
2022-11-19T03:36:35.449Z,20.89
2022-11-19T03:39:10.369Z,20.86
2022-11-19T03:41:38.924Z,20.86
2022-11-19T03:44:12.481Z,20.83
2022-11-19T03:46:40.168Z,20.82
2022-11-19T03:49:07.426Z,20.80
2022-11-19T03:52:03.190Z,20.79
2022-11-19T03:54:29.885Z,20.76
2022-11-19T03:56:57.958Z,20.74
2022-11-19T03:59:29.401Z,20.76
2022-11-19T04:01:58.802Z,20.76
2022-11-19T04:04:37.789Z,20.75
2022-11-19T04:07:15.127Z,20.72
2022-11-19T04:09:42.199Z,20.72
2022-11-19T04:12:14.027Z,20.70
2022-11-19T04:14:40.611Z,20.68
2022-11-19T04:17:07.297Z,20.63
2022-11-19T04:19:33.936Z,20.57
2022-11-19T04:22:00.522Z,20.55
2022-11-19T04:24:27.188Z,20.52
2022-11-19T04:26:53.780Z,20.50
2022-11-19T04:29:20.748Z,20.49
2022-11-19T04:31:47.574Z,20.48
2022-11-19T04:34:14.163Z,20.46
2022-11-19T04:36:42.250Z,20.46
2022-11-19T04:39:09.894Z,20.42
2022-11-19T04:41:36.747Z,20.42
2022-11-19T04:44:03.418Z,20.39
2022-11-19T04:46:30.138Z,20.38
2022-11-19T04:48:56.960Z,20.38
2022-11-19T04:51:23.824Z,20.37
2022-11-19T04:53:50.796Z,20.36
2022-11-19T04:56:17.487Z,20.33
2022-11-19T04:58:44.195Z,20.35
2022-11-19T05:01:11.260Z,20.32
2022-11-19T05:03:37.932Z,20.35
2022-11-19T05:06:04.588Z,20.31
2022-11-19T05:08:31.297Z,20.31
2022-11-19T05:10:57.885Z,20.31
2022-11-19T05:13:24.463Z,20.28
2022-11-19T05:15:51.138Z,20.27
2022-11-19T05:18:17.786Z,20.28
2022-11-19T05:20:44.389Z,20.29
2022-11-19T05:23:11.033Z,20.30
2022-11-19T05:25:37.744Z,20.26
2022-11-19T05:28:04.407Z,20.25
2022-11-19T05:30:31.061Z,20.22
2022-11-19T05:32:57.631Z,20.24
2022-11-19T05:35:24.236Z,20.22
2022-11-19T05:37:51.209Z,20.22
2022-11-19T05:40:18.401Z,20.21
2022-11-19T05:42:45.223Z,20.23
2022-11-19T05:45:11.976Z,20.22
2022-11-19T05:47:38.828Z,20.20
2022-11-19T05:50:05.806Z,20.19
2022-11-19T05:52:38.569Z,20.18
2022-11-19T05:55:05.448Z,20.17
2022-11-19T05:57:32.098Z,20.16
2022-11-19T05:59:58.680Z,20.13
2022-11-19T06:02:31.867Z,20.14
2022-11-19T06:04:58.597Z,20.11
2022-11-19T06:07:25.244Z,20.10
2022-11-19T06:09:51.838Z,20.10
2022-11-19T06:12:18.422Z,20.06
2022-11-19T06:14:45.026Z,20.04
2022-11-19T06:17:11.749Z,20.04
2022-11-19T06:19:38.321Z,20.01
2022-11-19T06:22:05.536Z,19.98
2022-11-19T06:24:32.127Z,19.98
2022-11-19T06:26:58.828Z,19.97
2022-11-19T06:29:25.887Z,19.96
2022-11-19T06:31:52.569Z,19.95
2022-11-19T06:34:19.143Z,19.94
2022-11-19T06:36:50.282Z,19.93
2022-11-19T06:39:17.629Z,19.93
2022-11-19T06:41:44.444Z,19.91
2022-11-19T06:44:11.106Z,19.93
2022-11-19T06:46:38.566Z,19.94
2022-11-19T06:49:06.013Z,19.93
2022-11-19T06:51:33.158Z,19.92
2022-11-19T06:53:59.999Z,19.90
2022-11-19T06:56:26.613Z,19.89
2022-11-19T06:58:56.163Z,19.89
2022-11-19T07:01:23.693Z,19.88
2022-11-19T07:03:50.381Z,19.88
2022-11-19T07:06:16.991Z,19.89
2022-11-19T07:08:43.634Z,19.89
2022-11-19T07:11:28.402Z,19.92
2022-11-19T07:13:58.508Z,19.95
2022-11-19T07:16:28.364Z,19.97
2022-11-19T07:18:56.580Z,19.99
2022-11-19T07:21:23.178Z,20.04
2022-11-19T07:23:49.790Z,20.07
2022-11-19T07:26:16.405Z,20.12
2022-11-19T07:28:43.099Z,20.16
2022-11-19T07:31:09.796Z,20.20
2022-11-19T07:33:39.254Z,20.24
2022-11-19T07:36:07.160Z,20.29
2022-11-19T07:38:36.918Z,20.33
2022-11-19T07:41:24.520Z,20.37
2022-11-19T07:43:51.185Z,20.42
2022-11-19T07:46:17.764Z,20.47
2022-11-19T07:48:44.379Z,20.51
2022-11-19T07:51:10.963Z,20.56
2022-11-19T07:53:37.621Z,20.60
2022-11-19T07:56:04.275Z,20.64
2022-11-19T07:58:30.840Z,20.68
2022-11-19T08:00:57.554Z,20.73
2022-11-19T08:03:24.201Z,20.77
2022-11-19T08:05:50.794Z,20.81
2022-11-19T08:08:17.423Z,20.86
2022-11-19T08:10:44.132Z,20.91
2022-11-19T08:13:10.780Z,20.96
2022-11-19T08:15:37.326Z,21.01
2022-11-19T08:18:13.106Z,21.05
2022-11-19T08:20:40.976Z,21.10
2022-11-19T08:23:07.547Z,21.15
2022-11-19T08:25:36.878Z,21.18
2022-11-19T08:28:04.104Z,21.23
2022-11-19T08:30:30.909Z,21.27
2022-11-19T08:32:57.512Z,21.32
2022-11-19T08:35:24.554Z,21.35
2022-11-19T08:37:51.632Z,21.38
2022-11-19T08:40:18.514Z,21.41
2022-11-19T08:43:00.576Z,21.45
2022-11-19T08:45:31.855Z,21.48
2022-11-19T08:47:59.141Z,21.51
2022-11-19T08:50:26.214Z,21.53
2022-11-19T08:52:55.753Z,21.56
2022-11-19T08:55:22.778Z,21.58
2022-11-19T08:57:49.503Z,21.59
2022-11-19T09:00:16.922Z,21.63
2022-11-19T09:02:43.841Z,21.64
2022-11-19T09:05:14.431Z,21.66
2022-11-19T09:07:41.576Z,21.62
2022-11-19T09:10:08.700Z,21.47
2022-11-19T09:12:35.386Z,21.26
2022-11-19T09:15:02.139Z,21.29
2022-11-19T09:17:28.724Z,21.28
2022-11-19T09:19:55.435Z,21.28
2022-11-19T09:22:22.042Z,21.27
2022-11-19T09:24:48.905Z,21.26
2022-11-19T09:27:15.563Z,21.25
2022-11-19T09:29:42.154Z,21.22
2022-11-19T09:32:08.861Z,21.23
2022-11-19T09:34:35.562Z,21.22
2022-11-19T09:37:02.194Z,21.19
2022-11-19T09:39:28.780Z,21.20
2022-11-19T09:42:06.767Z,21.21
2022-11-19T09:44:40.428Z,21.20
2022-11-19T09:47:22.198Z,21.18
2022-11-19T09:49:53.160Z,21.14
2022-11-19T09:52:21.692Z,21.15
2022-11-19T09:54:50.239Z,21.13
2022-11-19T09:57:21.909Z,21.10
2022-11-19T09:59:51.071Z,21.08
2022-11-19T10:02:18.857Z,21.06
2022-11-19T10:04:47.003Z,21.07
2022-11-19T10:07:22.709Z,21.07
2022-11-19T10:09:49.325Z,21.03
2022-11-19T10:12:24.811Z,21.06
2022-11-19T10:14:57.623Z,21.05
2022-11-19T10:17:28.259Z,21.05
2022-11-19T10:20:13.825Z,21.05
2022-11-19T10:23:03.653Z,21.05
2022-11-19T10:25:36.753Z,21.04
2022-11-19T10:28:26.997Z,21.04
2022-11-19T10:30:56.067Z,21.04
2022-11-19T10:33:34.013Z,21.03
2022-11-19T10:36:06.734Z,21.03
2022-11-19T10:38:37.047Z,21.04
2022-11-19T10:41:14.285Z,21.06
2022-11-19T10:43:46.500Z,21.04
2022-11-19T10:46:15.190Z,21.04
2022-11-19T10:48:42.589Z,21.05
2022-11-19T10:51:14.345Z,21.08
2022-11-19T10:53:42.690Z,21.11
2022-11-19T10:56:21.878Z,21.15
2022-11-19T10:58:56.112Z,21.15
2022-11-19T11:01:27.572Z,21.16
2022-11-19T11:04:14.470Z,21.19
2022-11-19T11:06:56.239Z,21.20
2022-11-19T11:09:29.713Z,21.21
2022-11-19T11:12:20.562Z,21.22
2022-11-19T11:14:54.369Z,21.23
2022-11-19T11:17:31.512Z,21.25
2022-11-19T11:19:58.104Z,21.26
2022-11-19T11:22:25.798Z,21.26
2022-11-19T11:24:52.385Z,21.26
2022-11-19T11:27:20.195Z,21.25
2022-11-19T11:29:46.824Z,21.27
2022-11-19T11:32:39.388Z,21.27
2022-11-19T11:35:09.940Z,21.26
2022-11-19T11:37:38.933Z,21.26
2022-11-19T11:40:06.389Z,21.27
2022-11-19T11:42:37.131Z,21.27
2022-11-19T11:45:03.987Z,21.28
2022-11-19T11:47:32.620Z,21.27
2022-11-19T11:49:59.490Z,21.27
2022-11-19T11:52:40.986Z,21.28
2022-11-19T11:55:14.153Z,21.27
2022-11-19T11:57:55.960Z,21.26
2022-11-19T12:00:42.965Z,21.27
2022-11-19T12:03:22.497Z,21.26
2022-11-19T12:06:08.011Z,21.27
2022-11-19T12:08:53.309Z,21.26
2022-11-19T12:11:56.630Z,21.26
2022-11-19T12:14:50.388Z,21.28
2022-11-19T12:17:19.837Z,21.33
2022-11-19T12:19:46.425Z,21.36
2022-11-19T12:22:20.685Z,21.39
2022-11-19T12:24:47.249Z,21.43
2022-11-19T12:27:28.891Z,21.47
2022-11-19T12:29:58.449Z,21.50
2022-11-19T12:32:40.928Z,21.53
2022-11-19T12:35:08.366Z,21.54
2022-11-19T12:38:00.991Z,21.56
2022-11-19T12:40:41.695Z,21.58
2022-11-19T12:43:11.645Z,21.59
2022-11-19T12:45:53.385Z,21.61
2022-11-19T12:48:43.949Z,21.61
2022-11-19T12:51:29.371Z,21.62
2022-11-19T12:54:19.483Z,21.61
2022-11-19T12:57:04.160Z,21.61
2022-11-19T12:59:48.109Z,21.60
2022-11-19T13:02:49.907Z,21.59
2022-11-19T13:05:23.262Z,21.59
2022-11-19T13:07:53.899Z,21.60
2022-11-19T13:10:25.998Z,21.59
2022-11-19T13:12:55.606Z,21.60
2022-11-19T13:15:24.844Z,21.59
2022-11-19T13:17:55.748Z,21.57
2022-11-19T13:20:22.382Z,21.62
2022-11-19T13:22:52.156Z,21.59
2022-11-19T13:25:30.895Z,21.57
2022-11-19T13:27:58.398Z,21.59
2022-11-19T13:30:29.676Z,21.58
2022-11-19T13:33:06.957Z,21.56
2022-11-19T13:35:45.538Z,21.56
2022-11-19T13:38:16.950Z,21.55
2022-11-19T13:40:46.010Z,21.53
2022-11-19T13:43:34.663Z,21.52
2022-11-19T13:46:04.181Z,21.53
2022-11-19T13:48:33.602Z,21.53
2022-11-19T13:51:03.739Z,21.49
2022-11-19T13:53:30.479Z,21.54
2022-11-19T13:55:57.889Z,21.67
2022-11-19T13:58:35.470Z,21.66
2022-11-19T14:01:08.786Z,21.67
2022-11-19T14:03:54.169Z,21.76
2022-11-19T14:06:29.932Z,21.71
2022-11-19T14:09:01.383Z,21.71
2022-11-19T14:11:31.090Z,21.68
2022-11-19T14:14:34.925Z,21.66
2022-11-19T14:17:35.237Z,21.65
2022-11-19T14:20:20.294Z,21.61
2022-11-19T14:23:15.197Z,21.58
2022-11-19T14:26:00.222Z,21.57
2022-11-19T14:28:43.524Z,21.56
2022-11-19T14:31:10.208Z,21.49
2022-11-19T14:33:48.941Z,21.43
2022-11-19T14:36:41.735Z,21.47
2022-11-19T14:39:15.705Z,21.52
2022-11-19T14:41:45.507Z,21.53
2022-11-19T14:44:14.960Z,21.55
2022-11-19T14:46:43.060Z,21.79
2022-11-19T14:49:24.842Z,21.95
2022-11-19T14:51:53.637Z,22.02
2022-11-19T14:54:31.808Z,22.04
2022-11-19T14:57:08.651Z,22.01
2022-11-19T14:59:37.082Z,22.01
2022-11-19T15:02:04.293Z,21.96
2022-11-19T15:04:36.593Z,21.95
2022-11-19T15:07:10.091Z,21.92
2022-11-19T15:09:58.152Z,21.91
2022-11-19T15:12:40.751Z,21.88
2022-11-19T15:15:19.399Z,21.86
2022-11-19T15:18:08.405Z,21.85
2022-11-19T15:20:57.500Z,21.78
2022-11-19T15:23:41.769Z,21.80
2022-11-19T15:26:08.489Z,21.77
2022-11-19T15:28:59.796Z,21.76
2022-11-19T15:31:29.497Z,21.76
2022-11-19T15:34:10.396Z,21.73
2022-11-19T15:36:41.708Z,21.69
2022-11-19T15:39:11.122Z,21.68
2022-11-19T15:41:40.747Z,21.65
2022-11-19T15:44:12.204Z,21.63
2022-11-19T15:46:41.257Z,21.63
2022-11-19T15:49:10.710Z,21.61
2022-11-19T15:51:50.021Z,21.58
2022-11-19T15:54:16.707Z,21.60
2022-11-19T15:56:49.767Z,21.55
2022-11-19T15:59:18.045Z,21.54
2022-11-19T16:01:47.173Z,21.50
2022-11-19T16:04:15.838Z,21.47
2022-11-19T16:06:49.482Z,21.47
2022-11-19T16:09:21.990Z,21.45
2022-11-19T16:12:07.914Z,21.44
2022-11-19T16:14:53.004Z,21.43
2022-11-19T16:17:36.905Z,21.44
2022-11-19T16:20:06.307Z,21.44
2022-11-19T16:22:39.982Z,21.45
2022-11-19T16:25:12.576Z,21.44
2022-11-19T16:27:41.028Z,21.44
2022-11-19T16:30:16.087Z,21.41
2022-11-19T16:32:45.247Z,21.42
2022-11-19T16:35:19.964Z,21.40
2022-11-19T16:37:47.680Z,21.41
2022-11-19T16:40:16.070Z,21.42
2022-11-19T16:42:45.769Z,21.40
2022-11-19T16:45:18.730Z,21.41
2022-11-19T16:47:56.141Z,21.39
2022-11-19T16:50:33.644Z,21.39
2022-11-19T16:53:01.126Z,21.39
2022-11-19T16:55:29.112Z,21.40
2022-11-19T16:57:57.270Z,21.40
2022-11-19T17:00:25.318Z,21.41
2022-11-19T17:02:52.161Z,21.43
2022-11-19T17:05:20.899Z,21.44
2022-11-19T17:07:51.577Z,21.45
2022-11-19T17:10:24.675Z,21.46
2022-11-19T17:12:55.529Z,21.47
2022-11-19T17:15:28.127Z,21.47
2022-11-19T17:17:54.808Z,21.48
2022-11-19T17:20:27.298Z,21.48
2022-11-19T17:22:54.298Z,21.49
2022-11-19T17:25:20.890Z,21.48
2022-11-19T17:27:53.119Z,21.49
2022-11-19T17:30:19.797Z,21.49
2022-11-19T17:32:48.012Z,21.49
2022-11-19T17:35:34.020Z,21.51
2022-11-19T17:38:09.585Z,21.49
2022-11-19T17:40:36.355Z,21.49
2022-11-19T17:43:21.741Z,21.50
2022-11-19T17:45:48.378Z,21.50
2022-11-19T17:48:20.897Z,21.50
2022-11-19T17:50:47.489Z,21.48
2022-11-19T17:53:14.104Z,21.49
2022-11-19T17:55:42.472Z,21.48
2022-11-19T17:58:09.223Z,21.51
2022-11-19T18:00:35.893Z,21.51
2022-11-19T18:03:03.363Z,21.50
2022-11-19T18:05:33.789Z,21.53
2022-11-19T18:08:00.490Z,21.50
2022-11-19T18:10:27.105Z,21.52
2022-11-19T18:12:53.667Z,21.50
2022-11-19T18:15:21.062Z,21.47
2022-11-19T18:17:47.657Z,21.44
2022-11-19T18:20:14.293Z,21.45
2022-11-19T18:22:41.313Z,21.44
2022-11-19T18:25:13.664Z,21.42
2022-11-19T18:27:40.525Z,21.36
2022-11-19T18:30:07.337Z,21.36
2022-11-19T18:32:33.944Z,21.34
2022-11-19T18:35:01.919Z,21.33
2022-11-19T18:37:29.498Z,21.27
2022-11-19T18:39:56.296Z,21.27
2022-11-19T18:42:35.572Z,21.23
2022-11-19T18:45:02.174Z,21.23
2022-11-19T18:47:28.738Z,21.24
2022-11-19T18:49:55.326Z,21.21
2022-11-19T18:52:36.432Z,21.23
2022-11-19T18:55:03.039Z,21.19
2022-11-19T18:57:29.698Z,21.17
2022-11-19T18:59:56.295Z,21.18
2022-11-19T19:02:32.109Z,21.17
2022-11-19T19:04:58.840Z,21.16
2022-11-19T19:07:25.900Z,21.15
2022-11-19T19:09:52.633Z,21.15
2022-11-19T19:12:19.323Z,21.14
2022-11-19T19:14:47.404Z,21.13
2022-11-19T19:17:14.680Z,21.13
2022-11-19T19:19:41.828Z,21.11
2022-11-19T19:22:08.557Z,21.11
2022-11-19T19:24:35.159Z,21.08
2022-11-19T19:27:02.079Z,21.08
2022-11-19T19:29:28.892Z,21.07
2022-11-19T19:31:55.532Z,21.05
2022-11-19T19:34:22.258Z,21.04
2022-11-19T19:36:52.993Z,21.06
2022-11-19T19:39:20.604Z,21.03
2022-11-19T19:41:49.355Z,21.02
2022-11-19T19:44:16.382Z,21.01
2022-11-19T19:46:43.038Z,20.99
2022-11-19T19:49:09.637Z,20.98
2022-11-19T19:51:36.454Z,20.97
2022-11-19T19:54:03.156Z,20.95
2022-11-19T19:56:31.220Z,20.94
2022-11-19T19:58:58.267Z,20.94
2022-11-19T20:01:29.158Z,20.95
2022-11-19T20:04:00.811Z,20.92
2022-11-19T20:06:27.502Z,20.90
2022-11-19T20:08:54.148Z,20.90
2022-11-19T20:11:21.966Z,20.89
2022-11-19T20:13:48.782Z,20.89
2022-11-19T20:16:18.125Z,20.88
2022-11-19T20:18:45.467Z,20.84
2022-11-19T20:21:19.829Z,20.83
2022-11-19T20:23:47.448Z,20.81
2022-11-19T20:26:18.385Z,20.79
2022-11-19T20:28:45.158Z,20.77
2022-11-19T20:31:19.994Z,20.77
2022-11-19T20:33:47.943Z,20.74
2022-11-19T20:36:15.737Z,20.72
2022-11-19T20:38:43.304Z,20.71
2022-11-19T20:41:29.847Z,20.69
2022-11-19T20:44:15.569Z,20.67
2022-11-19T20:46:42.511Z,20.65
2022-11-19T20:49:10.616Z,20.63
2022-11-19T20:51:40.997Z,20.60
2022-11-19T20:54:09.067Z,20.60
2022-11-19T20:56:36.560Z,20.58
2022-11-19T20:59:03.513Z,20.55
2022-11-19T21:01:31.532Z,20.55
2022-11-19T21:03:58.416Z,20.53
2022-11-19T21:06:25.200Z,20.51
2022-11-19T21:08:52.363Z,20.49
2022-11-19T21:11:19.296Z,20.47
2022-11-19T21:13:45.993Z,20.45
2022-11-19T21:16:14.119Z,20.42
2022-11-19T21:18:42.739Z,20.42
2022-11-19T21:21:10.812Z,20.40
2022-11-19T21:23:38.098Z,20.39
2022-11-19T21:26:06.490Z,20.38
2022-11-19T21:28:33.589Z,20.36
2022-11-19T21:31:00.570Z,20.33
2022-11-19T21:33:27.318Z,20.31
2022-11-19T21:36:05.137Z,20.28
2022-11-19T21:38:31.852Z,20.28
2022-11-19T21:41:30.397Z,20.26
2022-11-19T21:44:21.026Z,20.24
2022-11-19T21:46:48.257Z,20.24
2022-11-19T21:49:14.872Z,20.21
2022-11-19T21:51:41.606Z,20.20
2022-11-19T21:54:08.349Z,20.18
2022-11-19T21:56:38.458Z,20.18
2022-11-19T21:59:05.635Z,20.15
2022-11-19T22:01:32.276Z,20.13
2022-11-19T22:03:59.015Z,20.11
2022-11-19T22:06:25.699Z,20.08
2022-11-19T22:08:52.373Z,20.07
2022-11-19T22:11:31.931Z,20.06
2022-11-19T22:14:02.962Z,20.05
2022-11-19T22:16:30.393Z,20.02
2022-11-19T22:18:57.092Z,19.98
2022-11-19T22:21:23.765Z,19.93
2022-11-19T22:23:52.873Z,19.98
2022-11-19T22:26:19.564Z,19.97
2022-11-19T22:28:46.242Z,19.98
2022-11-19T22:31:13.664Z,19.90
2022-11-19T22:33:40.582Z,19.95
2022-11-19T22:36:10.163Z,19.95
2022-11-19T22:38:37.638Z,19.99
2022-11-19T22:41:06.524Z,20.02
2022-11-19T22:43:33.666Z,20.04
2022-11-19T22:46:00.605Z,20.05
2022-11-19T22:48:32.069Z,20.08
2022-11-19T22:50:59.018Z,20.10
2022-11-19T22:53:25.798Z,20.12
2022-11-19T22:55:52.402Z,20.16
2022-11-19T22:58:19.010Z,20.19
2022-11-19T23:00:46.718Z,20.21
2022-11-19T23:03:13.392Z,20.25
2022-11-19T23:05:40.186Z,20.29
2022-11-19T23:08:07.907Z,20.31
2022-11-19T23:10:34.651Z,20.35
2022-11-19T23:13:20.698Z,20.39
2022-11-19T23:15:59.928Z,20.45
2022-11-19T23:18:27.153Z,20.50
2022-11-19T23:20:57.473Z,20.53
2022-11-19T23:23:24.943Z,20.57
2022-11-19T23:26:12.331Z,20.61
2022-11-19T23:28:39.551Z,20.66
2022-11-19T23:31:08.320Z,20.71
2022-11-19T23:33:35.729Z,20.75
2022-11-19T23:36:07.031Z,20.78
2022-11-19T23:38:35.971Z,20.82
2022-11-19T23:41:04.611Z,20.85
2022-11-19T23:43:33.798Z,20.89
2022-11-19T23:46:08.442Z,20.92
2022-11-19T23:48:35.906Z,20.97
2022-11-19T23:51:03.492Z,21.02
2022-11-19T23:53:30.602Z,21.06
2022-11-19T23:55:58.035Z,21.08
2022-11-19T23:58:25.084Z,21.11
